createdAt,value
2022-09-16T00:00:52.451Z,32.55
2022-09-16T00:02:56.397Z,33.56
2022-09-16T00:05:00.430Z,32.76
2022-09-16T00:07:04.857Z,32.99
2022-09-16T00:09:08.639Z,33.14
2022-09-16T00:11:12.627Z,33.34
2022-09-16T00:13:16.352Z,34.30
2022-09-16T00:15:22.265Z,34.52
2022-09-16T00:17:25.916Z,35.42
2022-09-16T00:19:29.603Z,36.34
2022-09-16T00:21:33.800Z,36.40
2022-09-16T00:23:38.297Z,38.03
2022-09-16T00:25:42.258Z,38.97
2022-09-16T00:27:48.419Z,39.61
2022-09-16T00:29:52.323Z,40.46
2022-09-16T00:31:58.246Z,42.86
2022-09-16T00:34:01.846Z,42.98
2022-09-16T00:36:16.003Z,44.52
2022-09-16T00:38:21.396Z,45.81
2022-09-16T00:40:25.228Z,46.80
2022-09-16T00:42:28.907Z,48.17
2022-09-16T00:44:54.202Z,49.32
2022-09-16T00:47:00.906Z,50.27
2022-09-16T00:49:07.421Z,51.17
2022-09-16T00:51:13.113Z,52.29
2022-09-16T00:53:23.185Z,52.81
2022-09-16T00:55:29.032Z,53.51
2022-09-16T00:57:32.489Z,53.84
2022-09-16T00:59:38.747Z,55.22
2022-09-16T01:01:45.720Z,56.15
2022-09-16T01:03:51.780Z,56.70
2022-09-16T01:05:55.655Z,58.29
2022-09-16T01:07:59.662Z,57.91
2022-09-16T01:10:03.346Z,58.98
2022-09-16T01:12:07.385Z,60.12
2022-09-16T01:14:29.472Z,59.21
2022-09-16T01:16:36.684Z,60.95
2022-09-16T01:19:09.554Z,61.28
2022-09-16T01:21:32.469Z,61.28
2022-09-16T01:23:54.323Z,63.20
2022-09-16T01:26:16.780Z,64.02
2022-09-16T01:28:30.132Z,63.52
2022-09-16T01:30:52.558Z,63.16
2022-09-16T01:33:15.402Z,63.34
2022-09-16T01:35:25.297Z,63.77
2022-09-16T01:37:44.042Z,63.62
2022-09-16T01:39:52.465Z,64.28
2022-09-16T01:42:05.356Z,64.65
2022-09-16T01:44:31.666Z,64.31
2022-09-16T01:46:41.064Z,64.92
2022-09-16T01:48:53.876Z,64.99
2022-09-16T01:51:09.785Z,65.53
2022-09-16T01:53:22.806Z,65.54
2022-09-16T01:55:33.269Z,65.69
2022-09-16T01:57:46.144Z,66.68
2022-09-16T02:00:11.577Z,67.42
2022-09-16T02:02:23.861Z,66.58
2022-09-16T02:04:31.331Z,66.67
2022-09-16T02:06:35.392Z,67.36
2022-09-16T02:08:40.947Z,66.79
2022-09-16T02:10:51.851Z,67.63
2022-09-16T02:12:59.602Z,67.63
2022-09-16T02:15:07.394Z,68.35
2022-09-16T02:17:12.772Z,68.06
2022-09-16T02:19:22.122Z,68.65
2022-09-16T02:21:28.541Z,68.81
2022-09-16T02:23:38.380Z,68.86
2022-09-16T02:25:46.559Z,68.29
2022-09-16T02:27:51.049Z,68.30
2022-09-16T02:30:17.600Z,69.09
2022-09-16T02:32:25.663Z,69.20
2022-09-16T02:34:36.531Z,69.06
2022-09-16T02:36:42.144Z,68.81
2022-09-16T02:38:48.640Z,69.11
2022-09-16T02:40:54.236Z,69.35
2022-09-16T02:42:58.830Z,69.74
2022-09-16T02:45:09.496Z,68.89
2022-09-16T02:47:32.114Z,69.90
2022-09-16T02:49:45.407Z,70.43
2022-09-16T02:51:58.587Z,70.01
2022-09-16T02:54:34.002Z,69.66
2022-09-16T02:56:42.173Z,69.99
2022-09-16T02:58:48.695Z,70.34
2022-09-16T03:00:56.407Z,70.85
2022-09-16T03:03:02.771Z,71.23
2022-09-16T03:05:07.776Z,71.40
2022-09-16T03:07:12.629Z,71.83
2022-09-16T03:09:19.080Z,72.71
2022-09-16T03:11:31.553Z,72.60
2022-09-16T03:13:45.192Z,73.23
2022-09-16T03:15:59.706Z,73.78
2022-09-16T03:18:24.300Z,73.86
2022-09-16T03:20:28.192Z,73.63
2022-09-16T03:22:55.653Z,74.67
2022-09-16T03:25:12.725Z,74.78
2022-09-16T03:27:19.562Z,75.01
2022-09-16T03:29:23.169Z,74.60
2022-09-16T03:31:38.275Z,74.59
2022-09-16T03:33:48.934Z,74.52
2022-09-16T03:35:53.875Z,74.63
2022-09-16T03:38:01.784Z,74.99
2022-09-16T03:40:16.104Z,74.81
2022-09-16T03:42:20.566Z,75.65
2022-09-16T03:44:32.787Z,76.08
2022-09-16T03:46:37.402Z,75.86
2022-09-16T03:48:41.356Z,76.86
2022-09-16T03:50:46.107Z,76.56
2022-09-16T03:52:50.234Z,77.61
2022-09-16T03:54:54.273Z,77.78
2022-09-16T03:56:58.555Z,78.38
2022-09-16T03:59:02.365Z,78.46
2022-09-16T04:01:06.523Z,78.53
2022-09-16T04:03:14.092Z,78.82
2022-09-16T04:05:18.077Z,78.94
2022-09-16T04:07:22.058Z,79.64
2022-09-16T04:09:25.878Z,79.66
2022-09-16T04:11:33.383Z,79.21
2022-09-16T04:13:37.291Z,79.43
2022-09-16T04:15:43.919Z,79.06
2022-09-16T04:17:47.411Z,79.56
2022-09-16T04:19:50.980Z,78.90
2022-09-16T04:21:54.579Z,79.79
2022-09-16T04:23:58.307Z,79.34
2022-09-16T04:26:03.007Z,79.96
2022-09-16T04:28:07.048Z,79.74
2022-09-16T04:30:13.586Z,80.03
2022-09-16T04:32:17.357Z,80.22
2022-09-16T04:34:24.114Z,80.20
2022-09-16T04:36:27.735Z,80.74
2022-09-16T04:38:31.495Z,80.16
2022-09-16T04:40:35.097Z,79.46
2022-09-16T04:42:38.652Z,79.47
2022-09-16T04:44:42.231Z,79.54
2022-09-16T04:46:45.638Z,79.78
2022-09-16T04:48:52.559Z,79.33
2022-09-16T04:50:56.583Z,79.23
2022-09-16T04:53:00.216Z,79.15
2022-09-16T04:55:04.178Z,78.88
2022-09-16T04:57:07.939Z,78.89
2022-09-16T04:59:11.811Z,79.41
2022-09-16T05:01:20.113Z,79.04
2022-09-16T05:03:24.020Z,79.32
2022-09-16T05:05:28.262Z,79.12
2022-09-16T05:07:32.382Z,79.49
2022-09-16T05:09:39.434Z,79.46
2022-09-16T05:11:43.322Z,79.93
2022-09-16T05:13:47.812Z,79.67
2022-09-16T05:15:51.841Z,79.69
2022-09-16T05:17:59.440Z,79.93
2022-09-16T05:20:06.977Z,80.48
2022-09-16T05:22:10.955Z,80.14
2022-09-16T05:24:16.134Z,80.28
2022-09-16T05:26:24.653Z,81.06
2022-09-16T05:28:29.831Z,80.64
2022-09-16T05:30:33.726Z,81.20
2022-09-16T05:32:37.757Z,80.91
2022-09-16T05:34:42.133Z,80.91
2022-09-16T05:36:48.712Z,80.29
2022-09-16T05:39:18.318Z,80.70
2022-09-16T05:41:17.367Z,80.66
2022-09-16T05:43:22.792Z,81.18
2022-09-16T05:45:31.473Z,81.20
2022-09-16T05:47:36.350Z,81.01
2022-09-16T05:49:40.225Z,81.72
2022-09-16T05:51:46.868Z,81.72
2022-09-16T05:53:53.426Z,82.15
2022-09-16T05:56:07.660Z,82.30
2022-09-16T05:58:11.539Z,81.76
2022-09-16T06:00:16.321Z,82.45
2022-09-16T06:02:20.423Z,82.40
2022-09-16T06:04:24.677Z,82.57
2022-09-16T06:06:31.840Z,83.04
2022-09-16T06:08:39.476Z,83.46
2022-09-16T06:10:44.319Z,84.03
2022-09-16T06:12:48.261Z,83.85
2022-09-16T06:14:52.227Z,84.21
2022-09-16T06:17:07.358Z,84.72
2022-09-16T06:19:18.610Z,84.86
2022-09-16T06:21:24.076Z,84.77
2022-09-16T06:23:30.827Z,85.12
2022-09-16T06:25:35.237Z,85.56
2022-09-16T06:27:39.521Z,85.33
2022-09-16T06:29:43.479Z,85.69
2022-09-16T06:31:47.417Z,86.06
2022-09-16T06:33:53.369Z,86.67
2022-09-16T06:35:59.025Z,87.39
2022-09-16T06:38:03.509Z,87.18
2022-09-16T06:40:08.010Z,87.89
2022-09-16T06:42:11.981Z,87.82
2022-09-16T06:44:18.796Z,87.99
2022-09-16T06:46:27.848Z,88.34
2022-09-16T06:48:37.555Z,89.02
2022-09-16T06:50:41.747Z,89.48
2022-09-16T06:52:45.955Z,89.51
2022-09-16T06:54:50.469Z,90.65
2022-09-16T06:56:54.704Z,90.83
2022-09-16T06:58:58.944Z,90.69
2022-09-16T07:01:14.057Z,91.15
2022-09-16T07:03:18.083Z,91.60
2022-09-16T07:05:21.975Z,91.63
2022-09-16T07:07:25.878Z,92.19
2022-09-16T07:09:29.799Z,92.43
2022-09-16T07:11:33.939Z,93.34
2022-09-16T07:13:38.260Z,93.58
2022-09-16T07:16:02.359Z,93.58
2022-09-16T07:18:05.970Z,93.77
2022-09-16T07:20:10.365Z,94.61
2022-09-16T07:22:14.583Z,95.44
2022-09-16T07:24:18.453Z,95.39
2022-09-16T07:26:27.201Z,95.46
2022-09-16T07:28:30.979Z,96.01
2022-09-16T07:30:35.453Z,96.63
2022-09-16T07:32:39.536Z,96.76
2022-09-16T07:34:43.526Z,97.05
2022-09-16T07:36:49.695Z,97.30
2022-09-16T07:38:59.604Z,98.64
2022-09-16T07:41:25.265Z,99.45
2022-09-16T07:43:29.755Z,100.00
2022-09-16T07:45:33.696Z,100.00
2022-09-16T07:47:37.898Z,100.00
2022-09-16T07:49:42.033Z,100.00
2022-09-16T07:51:46.162Z,100.00
2022-09-16T07:53:56.193Z,100.00
2022-09-16T07:56:10.631Z,100.00
2022-09-16T07:58:14.295Z,100.00
2022-09-16T08:00:18.209Z,100.00
2022-09-16T08:02:22.066Z,100.00
2022-09-16T08:04:26.073Z,100.00
2022-09-16T08:06:31.850Z,100.00
2022-09-16T08:08:35.836Z,100.00
2022-09-16T08:10:39.679Z,100.00
2022-09-16T08:12:43.448Z,100.00
2022-09-16T08:14:47.476Z,100.00
2022-09-16T08:16:54.026Z,100.00
2022-09-16T08:19:00.901Z,100.00
2022-09-16T08:21:11.448Z,100.00
2022-09-16T08:23:15.899Z,100.00
2022-09-16T08:25:19.460Z,100.00
2022-09-16T08:27:22.966Z,100.00
2022-09-16T08:29:26.829Z,100.00
2022-09-16T08:31:30.311Z,100.00
2022-09-16T08:33:33.927Z,100.00
2022-09-16T08:35:38.104Z,100.00
2022-09-16T08:37:44.183Z,100.00
2022-09-16T08:39:50.121Z,100.00
2022-09-16T08:42:01.991Z,100.00
2022-09-16T08:44:23.695Z,100.00
2022-09-16T08:46:32.282Z,100.00
2022-09-16T08:48:58.457Z,100.00
2022-09-16T08:51:02.975Z,100.00
2022-09-16T08:53:12.486Z,100.00
2022-09-16T08:55:18.422Z,100.00
2022-09-16T08:57:28.080Z,100.00
2022-09-16T08:59:36.988Z,100.00
2022-09-16T09:02:05.255Z,100.00
2022-09-16T09:04:13.683Z,100.00
2022-09-16T09:06:45.332Z,100.00
2022-09-16T09:09:05.187Z,100.00
2022-09-16T09:11:16.332Z,100.00
2022-09-16T09:13:20.786Z,100.00
2022-09-16T09:15:45.113Z,100.00
2022-09-16T09:18:09.474Z,100.00
2022-09-16T09:20:24.235Z,100.00
2022-09-16T09:22:46.123Z,100.00
2022-09-16T09:24:58.223Z,100.00
2022-09-16T09:27:24.458Z,100.00
2022-09-16T09:29:34.969Z,100.00
2022-09-16T09:31:48.005Z,100.00
2022-09-16T09:34:07.697Z,100.00
2022-09-16T09:36:20.798Z,100.00
2022-09-16T09:38:36.071Z,100.00
2022-09-16T09:40:53.631Z,100.00
2022-09-16T09:43:16.177Z,100.00
2022-09-16T09:45:22.412Z,100.00
2022-09-16T09:47:36.078Z,100.00
2022-09-16T09:49:48.155Z,100.00
2022-09-16T09:52:11.957Z,100.00
2022-09-16T09:54:18.860Z,100.00
2022-09-16T09:56:26.817Z,100.00
2022-09-16T09:58:45.705Z,100.00
2022-09-16T10:00:49.207Z,100.00
2022-09-16T10:02:53.020Z,100.00
2022-09-16T10:04:59.361Z,100.00
2022-09-16T10:09:15.040Z,100.00
2022-09-16T10:11:29.788Z,100.00
2022-09-16T10:13:33.361Z,100.00
2022-09-16T10:15:37.648Z,100.00
2022-09-16T10:17:50.114Z,100.00
2022-09-16T10:19:58.287Z,100.00
2022-09-16T10:22:23.053Z,100.00
2022-09-16T10:24:30.414Z,100.00
2022-09-16T10:26:41.526Z,100.00
2022-09-16T10:28:55.031Z,100.00
2022-09-16T10:30:59.947Z,100.00
2022-09-16T10:33:12.228Z,100.00
2022-09-16T10:35:21.565Z,100.00
2022-09-16T10:37:28.910Z,100.00
2022-09-16T10:39:33.371Z,100.00
2022-09-16T10:41:48.660Z,100.00
2022-09-16T10:43:55.070Z,100.00
2022-09-16T10:45:59.614Z,100.00
2022-09-16T10:48:07.292Z,100.00
2022-09-16T10:50:18.364Z,100.00
2022-09-16T10:52:24.934Z,100.00
2022-09-16T10:54:29.844Z,100.00
2022-09-16T10:56:34.736Z,100.00
2022-09-16T10:58:38.699Z,100.00
2022-09-16T11:01:02.511Z,100.00
2022-09-16T11:03:09.186Z,100.00
2022-09-16T11:05:38.174Z,100.00
2022-09-16T11:08:07.895Z,100.00
2022-09-16T11:10:29.739Z,100.00
2022-09-16T11:12:43.548Z,100.00
2022-09-16T11:14:59.302Z,100.00
2022-09-16T11:17:23.089Z,100.00
2022-09-16T11:19:32.713Z,100.00
2022-09-16T11:21:57.030Z,100.00
2022-09-16T11:24:10.119Z,100.00
2022-09-16T11:26:13.734Z,100.00
2022-09-16T11:28:17.243Z,100.00
2022-09-16T11:30:24.222Z,100.00
2022-09-16T11:32:42.649Z,100.00
2022-09-16T11:34:55.671Z,100.00
2022-09-16T11:37:05.815Z,100.00
2022-09-16T11:39:09.436Z,100.00
2022-09-16T11:41:13.217Z,100.00
2022-09-16T11:43:35.259Z,100.00
2022-09-16T11:45:51.936Z,100.00
2022-09-16T11:47:58.096Z,100.00
2022-09-16T11:50:08.677Z,100.00
2022-09-16T11:52:18.316Z,100.00
2022-09-16T11:54:34.838Z,100.00
2022-09-16T11:56:44.147Z,100.00
2022-09-16T11:58:53.089Z,100.00
2022-09-16T12:00:58.316Z,100.00
2022-09-16T12:03:28.705Z,100.00
2022-09-16T12:05:37.888Z,100.00
2022-09-16T12:07:46.339Z,100.00
2022-09-16T12:09:57.259Z,100.00
2022-09-16T12:12:07.520Z,100.00
2022-09-16T12:14:20.224Z,100.00
2022-09-16T12:16:32.826Z,100.00
2022-09-16T12:18:56.960Z,100.00
2022-09-16T12:21:22.301Z,100.00
2022-09-16T12:23:29.818Z,100.00
2022-09-16T12:25:48.587Z,100.00
2022-09-16T12:27:55.516Z,100.00
2022-09-16T12:30:07.873Z,100.00
2022-09-16T12:32:14.839Z,100.00
2022-09-16T12:34:22.923Z,100.00
2022-09-16T12:36:32.574Z,100.00
2022-09-16T12:38:37.169Z,100.00
2022-09-16T12:40:43.990Z,100.00
2022-09-16T12:42:50.592Z,100.00
2022-09-16T12:45:03.302Z,100.00
2022-09-16T12:47:06.816Z,100.00
2022-09-16T12:49:10.297Z,100.00
2022-09-16T12:51:29.934Z,100.00
2022-09-16T12:53:35.818Z,100.00
2022-09-16T12:56:01.563Z,100.00
2022-09-16T12:58:05.226Z,100.00
2022-09-16T13:00:17.329Z,100.00
2022-09-16T13:02:23.094Z,100.00
2022-09-16T13:04:30.667Z,100.00
2022-09-16T13:06:36.307Z,100.00
2022-09-16T13:08:39.757Z,100.00
2022-09-16T13:10:56.301Z,100.00
2022-09-16T13:13:08.919Z,100.00
2022-09-16T13:15:24.764Z,100.00
2022-09-16T13:17:32.476Z,100.00
2022-09-16T13:19:42.452Z,100.00
2022-09-16T13:21:48.175Z,100.00
2022-09-16T13:24:00.873Z,100.00
2022-09-16T13:26:09.044Z,100.00
2022-09-16T13:28:31.151Z,100.00
2022-09-16T13:30:40.749Z,100.00
2022-09-16T13:32:59.389Z,100.00
2022-09-16T13:35:06.929Z,100.00
2022-09-16T13:37:26.030Z,100.00
2022-09-16T13:39:34.309Z,100.00
2022-09-16T13:41:39.953Z,100.00
2022-09-16T13:43:43.424Z,100.00
2022-09-16T13:45:47.529Z,100.00
2022-09-16T13:47:51.183Z,100.00
2022-09-16T13:49:57.471Z,100.00
2022-09-16T13:52:10.870Z,100.00
2022-09-16T13:54:26.689Z,100.00
2022-09-16T13:56:39.163Z,100.00
2022-09-16T13:59:01.445Z,100.00
2022-09-16T14:01:14.131Z,100.00
2022-09-16T14:03:23.622Z,100.00
2022-09-16T14:05:27.174Z,100.00
2022-09-16T14:07:40.949Z,100.00
2022-09-16T14:09:54.984Z,100.00
2022-09-16T14:12:04.910Z,100.00
2022-09-16T14:14:29.794Z,100.00
2022-09-16T14:16:37.059Z,100.00
2022-09-16T14:18:43.279Z,100.00
2022-09-16T14:21:01.577Z,100.00
2022-09-16T14:23:06.413Z,100.00
2022-09-16T14:25:29.359Z,100.00
2022-09-16T14:27:37.456Z,100.00
2022-09-16T14:29:41.114Z,100.00
2022-09-16T14:31:49.334Z,100.00
2022-09-16T14:34:01.557Z,100.00
2022-09-16T14:36:16.380Z,100.00
2022-09-16T14:38:44.319Z,100.00
2022-09-16T14:40:48.800Z,100.00
2022-09-16T14:43:01.002Z,100.00
2022-09-16T14:45:06.343Z,100.00
2022-09-16T14:47:28.363Z,100.00
2022-09-16T14:49:38.360Z,100.00
2022-09-16T14:51:49.789Z,100.00
2022-09-16T14:54:11.856Z,100.00
2022-09-16T14:56:20.925Z,100.00
2022-09-16T14:58:25.433Z,100.00
2022-09-16T15:00:32.063Z,100.00
2022-09-16T15:02:41.625Z,100.00
2022-09-16T15:04:49.807Z,100.00
2022-09-16T15:06:55.297Z,100.00
2022-09-16T15:09:01.939Z,100.00
2022-09-16T15:11:19.548Z,100.00
2022-09-16T15:13:37.971Z,100.00
2022-09-16T15:15:47.641Z,100.00
2022-09-16T15:17:58.413Z,100.00
2022-09-16T15:20:02.270Z,100.00
2022-09-16T15:22:08.621Z,100.00
2022-09-16T15:24:44.396Z,100.00
2022-09-16T15:26:50.897Z,100.00
2022-09-16T15:29:04.181Z,100.00
2022-09-16T15:31:14.016Z,95.96
2022-09-16T15:33:44.047Z,92.71
2022-09-16T15:35:53.139Z,97.72
2022-09-16T15:37:56.881Z,96.43
2022-09-16T15:40:24.646Z,97.70
2022-09-16T15:42:28.047Z,89.38
2022-09-16T15:44:36.941Z,95.37
2022-09-16T15:46:46.264Z,95.76
2022-09-16T15:49:00.854Z,88.74
2022-09-16T15:51:08.950Z,79.89
2022-09-16T15:53:20.998Z,89.55
2022-09-16T15:55:45.000Z,87.19
2022-09-16T15:57:48.797Z,86.18
2022-09-16T15:59:55.545Z,82.41
2022-09-16T16:02:01.828Z,86.51
2022-09-16T16:04:09.879Z,83.41
2022-09-16T16:06:15.978Z,82.83
2022-09-16T16:08:37.770Z,81.66
2022-09-16T16:10:42.913Z,82.06
2022-09-16T16:12:50.166Z,81.14
2022-09-16T16:14:54.244Z,77.36
2022-09-16T16:17:12.203Z,77.27
2022-09-16T16:19:16.631Z,78.60
2022-09-16T16:21:23.020Z,77.61
2022-09-16T16:23:26.668Z,73.40
2022-09-16T16:25:30.416Z,72.33
2022-09-16T16:27:34.566Z,74.08
2022-09-16T16:29:39.821Z,71.12
2022-09-16T16:31:59.973Z,72.79
2022-09-16T16:34:04.038Z,71.87
2022-09-16T16:36:07.684Z,68.06
2022-09-16T16:38:11.656Z,68.84
2022-09-16T16:40:15.905Z,70.86
2022-09-16T16:42:20.365Z,61.93
2022-09-16T16:44:26.724Z,69.88
2022-09-16T16:46:33.191Z,68.88
2022-09-16T16:48:36.705Z,67.89
2022-09-16T16:50:40.226Z,68.57
2022-09-16T16:52:43.625Z,65.37
2022-09-16T16:54:47.775Z,67.15
2022-09-16T16:56:51.748Z,68.73
2022-09-16T16:58:56.603Z,64.32
2022-09-16T17:01:17.202Z,60.49
2022-09-16T17:03:22.264Z,65.81
2022-09-16T17:05:26.177Z,63.16
2022-09-16T17:07:30.761Z,63.45
2022-09-16T17:09:34.396Z,63.86
2022-09-16T17:11:38.400Z,62.10
2022-09-16T17:13:43.733Z,64.08
2022-09-16T17:15:47.972Z,62.72
2022-09-16T17:17:51.608Z,64.38
2022-09-16T17:19:55.126Z,65.82
2022-09-16T17:21:58.764Z,61.72
2022-09-16T17:24:02.717Z,59.98
2022-09-16T17:26:07.062Z,63.56
2022-09-16T17:28:13.368Z,65.49
2022-09-16T17:30:17.835Z,64.38
2022-09-16T17:32:21.417Z,68.90
2022-09-16T17:34:27.389Z,58.37
2022-09-16T17:36:31.930Z,65.37
2022-09-16T17:38:38.470Z,66.46
2022-09-16T17:40:45.170Z,67.25
2022-09-16T17:42:52.052Z,62.82
2022-09-16T17:44:55.581Z,63.92
2022-09-16T17:46:59.016Z,62.96
2022-09-16T17:49:03.268Z,66.95
2022-09-16T17:51:07.064Z,62.73
2022-09-16T17:53:10.467Z,58.42
2022-09-16T17:55:13.990Z,56.62
2022-09-16T17:57:17.292Z,58.25
2022-09-16T17:59:23.970Z,62.32
2022-09-16T18:01:28.196Z,59.30
2022-09-16T18:03:31.922Z,58.07
2022-09-16T18:05:35.979Z,60.34
2022-09-16T18:07:39.895Z,58.81
2022-09-16T18:09:43.530Z,56.76
2022-09-16T18:11:47.219Z,58.18
2022-09-16T18:13:54.792Z,54.96
2022-09-16T18:16:02.711Z,60.77
2022-09-16T18:18:06.098Z,52.19
2022-09-16T18:20:10.026Z,58.07
2022-09-16T18:22:14.538Z,51.86
2022-09-16T18:24:18.864Z,51.34
2022-09-16T18:26:22.509Z,54.10
2022-09-16T18:28:25.886Z,51.10
2022-09-16T18:30:29.736Z,50.77
2022-09-16T18:32:33.134Z,50.29
2022-09-16T18:34:36.493Z,55.22
2022-09-16T18:36:40.409Z,51.33
2022-09-16T18:38:46.784Z,50.15
2022-09-16T18:40:50.830Z,48.96
2022-09-16T18:42:56.907Z,53.48
2022-09-16T18:45:05.103Z,49.43
2022-09-16T18:47:08.758Z,53.75
2022-09-16T18:49:13.901Z,54.29
2022-09-16T18:51:17.207Z,51.90
2022-09-16T18:53:23.550Z,50.09
2022-09-16T18:55:27.610Z,54.16
2022-09-16T18:57:31.744Z,49.32
2022-09-16T18:59:37.030Z,50.22
2022-09-16T19:01:41.499Z,46.99
2022-09-16T19:03:45.732Z,46.74
2022-09-16T19:05:56.253Z,45.52
2022-09-16T19:07:59.703Z,45.75
2022-09-16T19:10:03.245Z,45.65
2022-09-16T19:12:08.041Z,46.86
2022-09-16T19:14:16.481Z,48.07
2022-09-16T19:16:20.680Z,45.85
2022-09-16T19:18:24.612Z,43.56
2022-09-16T19:20:28.889Z,43.81
2022-09-16T19:22:32.746Z,43.57
2022-09-16T19:24:38.798Z,45.29
2022-09-16T19:26:43.488Z,46.25
2022-09-16T19:28:47.219Z,47.58
2022-09-16T19:30:53.138Z,46.07
2022-09-16T19:32:56.882Z,45.89
2022-09-16T19:35:01.686Z,43.47
2022-09-16T19:37:05.105Z,42.09
2022-09-16T19:39:09.728Z,40.83
2022-09-16T19:41:14.243Z,39.89
2022-09-16T19:43:19.221Z,41.08
2022-09-16T19:45:27.792Z,41.29
2022-09-16T19:47:31.673Z,42.13
2022-09-16T19:49:35.488Z,38.72
2022-09-16T19:51:39.363Z,39.85
2022-09-16T19:53:43.909Z,37.81
2022-09-16T19:55:48.015Z,41.99
2022-09-16T19:57:52.107Z,40.09
2022-09-16T19:59:57.833Z,36.53
2022-09-16T20:02:01.683Z,37.56
2022-09-16T20:04:07.149Z,38.28
2022-09-16T20:06:15.584Z,37.22
2022-09-16T20:08:19.571Z,36.11
2022-09-16T20:10:23.637Z,39.52
2022-09-16T20:12:28.113Z,35.72
2022-09-16T20:14:36.920Z,36.79
2022-09-16T20:16:40.794Z,37.11
2022-09-16T20:18:47.709Z,35.98
2022-09-16T20:20:51.242Z,35.91
2022-09-16T20:22:55.229Z,35.26
2022-09-16T20:25:21.302Z,35.08
2022-09-16T20:27:23.539Z,36.12
2022-09-16T20:29:29.711Z,35.75
2022-09-16T20:31:35.442Z,35.34
2022-09-16T20:33:39.437Z,35.28
2022-09-16T20:35:45.481Z,34.85
2022-09-16T20:37:49.158Z,35.49
2022-09-16T20:39:52.978Z,32.89
2022-09-16T20:41:57.825Z,33.41
2022-09-16T20:44:01.846Z,33.02
2022-09-16T20:46:06.381Z,32.12
2022-09-16T20:48:10.041Z,33.97
2022-09-16T20:50:13.562Z,32.72
2022-09-16T20:52:17.271Z,32.87
2022-09-16T20:54:20.892Z,32.70
2022-09-16T20:56:24.541Z,33.07
2022-09-16T20:58:27.818Z,33.40
2022-09-16T21:00:33.923Z,32.37
2022-09-16T21:02:37.621Z,32.94
2022-09-16T21:04:41.929Z,32.57
2022-09-16T21:06:45.622Z,32.03
2022-09-16T21:08:49.753Z,33.19
2022-09-16T21:10:53.185Z,32.74
2022-09-16T21:12:59.506Z,32.26
2022-09-16T21:15:03.120Z,31.86
2022-09-16T21:17:06.632Z,32.10
2022-09-16T21:19:11.050Z,33.36
2022-09-16T21:21:16.791Z,32.05
2022-09-16T21:23:21.330Z,31.70
2022-09-16T21:25:25.558Z,32.66
2022-09-16T21:27:31.946Z,33.48
2022-09-16T21:29:37.608Z,32.78
2022-09-16T21:31:43.131Z,32.00
2022-09-16T21:33:46.880Z,31.31
2022-09-16T21:35:53.771Z,31.46
2022-09-16T21:37:58.120Z,31.32
2022-09-16T21:40:01.715Z,31.25
2022-09-16T21:42:05.848Z,32.45
2022-09-16T21:44:09.467Z,32.87
2022-09-16T21:46:15.580Z,30.93
2022-09-16T21:48:20.344Z,32.05
2022-09-16T21:50:23.739Z,30.76
2022-09-16T21:52:27.242Z,32.60
2022-09-16T21:54:32.369Z,30.93
2022-09-16T21:56:37.969Z,31.84
2022-09-16T21:58:45.055Z,32.39
2022-09-16T22:00:48.635Z,31.78
2022-09-16T22:02:52.408Z,31.94
2022-09-16T22:04:55.859Z,31.69
2022-09-16T22:06:59.662Z,31.27
2022-09-16T22:09:04.336Z,31.35
2022-09-16T22:11:17.646Z,30.28
2022-09-16T22:13:21.272Z,30.21
2022-09-16T22:15:25.265Z,31.67
2022-09-16T22:17:29.842Z,31.69
2022-09-16T22:19:35.741Z,32.33
2022-09-16T22:21:41.750Z,33.09
2022-09-16T22:23:45.874Z,32.96
2022-09-16T22:25:49.798Z,32.94
2022-09-16T22:27:53.107Z,32.77
2022-09-16T22:29:58.093Z,32.56
2022-09-16T22:32:01.324Z,33.17
2022-09-16T22:34:05.578Z,32.41
2022-09-16T22:36:10.436Z,31.82
2022-09-16T22:38:14.698Z,31.22
2022-09-16T22:40:18.478Z,31.78
2022-09-16T22:42:22.078Z,31.06
2022-09-16T22:44:27.880Z,31.60
2022-09-16T22:46:33.020Z,32.13
2022-09-16T22:48:36.828Z,32.07
2022-09-16T22:50:40.252Z,32.75
2022-09-16T22:52:43.707Z,33.21
2022-09-16T22:54:47.246Z,33.76
2022-09-16T22:56:50.578Z,34.39
2022-09-16T22:58:55.099Z,34.65
2022-09-16T23:01:18.165Z,35.04
2022-09-16T23:03:24.385Z,34.61
2022-09-16T23:05:28.199Z,35.42
2022-09-16T23:07:34.794Z,35.19
2022-09-16T23:09:38.814Z,36.35
2022-09-16T23:11:42.849Z,36.22
2022-09-16T23:13:49.158Z,36.76
2022-09-16T23:15:55.734Z,37.80
2022-09-16T23:17:59.408Z,37.72
2022-09-16T23:20:03.090Z,38.15
2022-09-16T23:22:06.798Z,38.14
2022-09-16T23:24:15.189Z,37.99
2022-09-16T23:26:25.479Z,39.01
2022-09-16T23:28:29.352Z,40.53
2022-09-16T23:30:32.887Z,39.04
2022-09-16T23:32:36.702Z,39.39
2022-09-16T23:34:40.518Z,39.30
2022-09-16T23:36:44.329Z,40.04
2022-09-16T23:38:48.156Z,40.16
2022-09-16T23:40:51.874Z,39.58
2022-09-16T23:42:56.372Z,39.27
2022-09-16T23:44:59.843Z,39.79
2022-09-16T23:47:06.422Z,39.67
2022-09-16T23:49:11.192Z,39.12
2022-09-16T23:51:15.242Z,39.73
2022-09-16T23:53:20.142Z,40.57
2022-09-16T23:55:23.641Z,40.50
2022-09-16T23:57:27.467Z,40.58
2022-09-16T23:59:30.955Z,41.28
